world map with DBV marked

DBV - Airport

This information may not be accurate or current and is not valid for navigation or flight planning. No warranty of fitness for any purpose is made or implied.

flag of Croatia

Donate via PayPal

Additional information is available on the NEW Great Circle Mapper

Location
City:  Dubrovnik, Croatia
ICAO / IATA:LDDU / DBV

Details
Type:Airport (Aerodrome, Airfield)
Use:Public/Civil
Latitude:42°33'41"N (42.561353)
Longitude:18°16'06"E (18.268244)
Datum:WGS 1984
Elevation:527 ft (161 m)
Runways:1
Longest:10827 × 148 ft (3300 × 45 m)

Time
Timezone:UTC+1 (DST+4)
Local Time:

Weather
METAR:LDDU  180200Z 02014KT 350V060 CAVOK 12/03 Q1012
TAF:LDDU  172325Z 1800/1900 03015KT CAVOK TX16/1812Z TN10/1823Z BECMG 1809/1811 28008KT BECMG 1815/1817 03010KT

Related Locations
Nearby:
Farthest:CHT: 11693 mi / 18818 km
Waitangi [Tuuta], CIT, NZ

Find:

   beyond  
but within

Other Information
Maps:
Sources:

  


 


Great Circle Mapper   Great Circle Mapper
Great Circle Mapper FAQ   Great Circle Mapper FAQ
  Karl's Home Page
KLSē   KLSē Home
   GC on Facebook
Airlines of the World   Airlines of the World
Donate via PayPal


Copyright © 2004-2017, Karl L. Swartz. All rights reserved.
All trademarks mentioned herein belong to their respective owners.

Please see credits for attribution and copyright information.

Karl Swartz <karl@kls2.com>
  Powered by FreeBSD
Valid HTML 4.01!
Labeled with ICRA
hCard Microformat
Geo Microformat